Pagrindinis puslapis
METAR-TAF:

METAR-TAF

Oro uostai :

Lubbock, Teksasas, Jungtinės Amerikos Valstijos

platuma: 33-40-03N, ilguma: 101-49-17W, Aukštis: 1000 m

Dabartinis oras

Ataskaita buvo paskelbta 38 minutes, ne 03:53 UTC
Vėjas 15 kt iš Rytų
Temperatūra 20°C
Drėgmė 56%
Slėgis 1021 hPa
Matomumas: 16.1 km
Su prošvaistėmis ne aukštis 4800 ft

METAR: KLBB 220353Z 10015KT 10SM BKN048 20/11 A3015 RMK AO2 SLP167 T02000111

Laikas: 23:31 (04:31 UTC)

Prognozė

Ataskaita buvo paskelbta 1 valandą ir 7 minutes, ne 03:24 UTC
Prognozė galioja nuo 22 metu 03 UTC su 22 metu 24 UTC
Vėjas 15 kt iš Rytų
Matomumas: 10 km
Su prošvaistėmis ne aukštis 4000 ft
Nuo 22 metu 0900 UTC
Vėjas 4 kt nuo kintamojo kryptimis
Matomumas: 10 km
Mažai debesys ne aukštis 25000 ft

TAF: KLBB 220324Z 2203/2224 09015KT P6SM BKN040 FM220900 VRB04KT P6SM FEW250

Orai ataskaitas ir orų prognozės (METAR, TAF).

turimą stotys yra geltonos ir raudonos taškus žemėlapyje.

Perkelti pele per norėdami pamatyti stoties vardą.

Tada spustelėkite, norėdami matyti oro stebėjimo ir prognozės.

Norėdami pakeisti žemėlapį: spustelėkite ant žalios mygtukų su juodo kryžiaus žemyn,; žalią mygtuką su brūkšneliu, jei norite nutolinti; arba žalių rodyklių gretimoms žemėlapius.


METAR-TAF: